Time;durP1;ratioP1;P1;durP2;ratioP2;P2;SDS_P1;SDS_P2;PMS_P1;PMS_P2;Temp;Humidity;BMP_temperature;BMP_pressure;BME280_temperature;BME280_humidity;BME280_pressure;Samples;Min_cycle;Max_cycle;Signal;HPM_P1;HPM_P2
2021/12/16 00:06:15;;;;;;;72.90;50.90;;;;;;;4.64;100.00;100293.40;102502;1311;61351;-76
2021/12/16 00:08:29;;;;;;;68.30;47.80;;;;;;;4.65;100.00;100295.30;102540;1307;74808;-75
2021/12/16 00:11:16;;;;;;;70.40;47.60;;;;;;;4.65;100.00;100294.25;102487;1307;70519;-76
2021/12/16 00:31:03;;;;;;;61.00;41.00;;;;;;;4.68;100.00;100284.34;102527;1314;61412;-76
2021/12/16 00:35:57;;;;;;;67.10;43.80;;;;;;;4.69;100.00;100289.08;102514;1307;75657;-77
2021/12/16 00:38:24;;;;;;;67.70;46.60;;;;;;;4.70;100.00;100289.41;102524;1308;70291;-75
2021/12/16 00:40:51;;;;;;;67.90;44.70;;;;;;;4.70;100.00;100290.45;102482;1307;73190;-75
2021/12/16 00:43:33;;;;;;;63.40;45.10;;;;;;;4.71;100.00;100286.91;102519;1307;61391;-76
2021/12/16 00:56:36;;;;;;;69.50;45.70;;;;;;;4.73;100.00;100285.29;102584;1308;61311;-75
2021/12/16 00:59:06;;;;;;;62.60;44.90;;;;;;;4.72;100.00;100281.94;102532;1307;61317;-76
2021/12/16 01:34:30;;;;;;;71.50;46.80;;;;;;;4.71;100.00;100284.98;101971;1313;73362;-76
2021/12/16 01:51:25;;;;;;;69.90;44.60;;;;;;;4.64;100.00;100263.66;101832;1317;61247;-75
2021/12/16 01:56:55;;;;;;;71.60;43.60;;;;;;;4.62;100.00;100263.34;102549;1307;75340;-76
2021/12/16 01:59:26;;;;;;;65.10;42.70;;;;;;;4.62;100.00;100255.42;102572;1310;70404;-77
2021/12/16 02:01:59;;;;;;;60.70;41.90;;;;;;;4.62;100.00;100257.89;102480;1307;71545;-75
2021/12/16 02:04:39;;;;;;;64.00;44.90;;;;;;;4.62;100.00;100254.52;102276;1314;61399;-76
2021/12/16 02:07:23;;;;;;;64.30;44.90;;;;;;;4.62;100.00;100246.61;102511;1307;61252;-76
2021/12/16 02:09:49;;;;;;;61.40;43.30;;;;;;;4.64;100.00;100242.54;102576;1308;75271;-76
2021/12/16 02:36:42;;;;;;;54.70;39.90;;;;;;;4.66;100.00;100228.75;102487;1307;74828;-76
2021/12/16 02:39:15;;;;;;;55.40;41.70;;;;;;;4.67;100.00;100223.98;102537;1307;69770;-76
2021/12/16 02:41:46;;;;;;;52.30;37.80;;;;;;;4.67;100.00;100224.52;102533;1307;74258;-76
2021/12/16 02:48:27;;;;;;;53.50;39.40;;;;;;;4.66;100.00;100223.29;102541;1311;61260;-75
2021/12/16 02:49:58;;;;;;;51.70;38.30;;;;;;;4.68;100.00;100224.13;102085;1311;76564;-75
2021/12/16 02:52:27;;;;;;;57.20;38.80;;;;;;;4.70;100.00;100226.92;102357;1315;69517;-76
2021/12/16 02:54:54;;;;;;;54.90;41.70;;;;;;;4.70;100.00;100227.44;102442;1314;74292;-76
2021/12/16 02:57:21;;;;;;;50.70;40.30;;;;;;;4.69;100.00;100226.93;102563;1307;61327;-76
2021/12/16 02:59:50;;;;;;;49.70;37.20;;;;;;;4.70;100.00;100232.36;102619;1307;61289;-76
2021/12/16 03:02:18;;;;;;;52.70;39.20;;;;;;;4.70;100.00;100232.34;102677;1307;75696;-75
2021/12/16 03:04:49;;;;;;;51.60;36.10;;;;;;;4.69;100.00;100225.69;102750;1311;67831;-76
2021/12/16 03:07:17;;;;;;;54.20;37.70;;;;;;;4.68;100.00;100229.40;102719;1307;72134;-75
2021/12/16 03:15:30;;;;;;;52.50;37.60;;;;;;;4.69;100.00;100230.80;103478;1307;76495;-75
2021/12/16 03:18:11;;;;;;;57.00;43.00;;;;;;;4.68;100.00;100233.80;103226;1308;69577;-76
2021/12/16 03:20:46;;;;;;;59.50;44.40;;;;;;;4.68;100.00;100231.87;103148;1315;72734;-76
2021/12/16 03:39:06;;;;;;;57.50;39.90;;;;;;;4.68;100.00;100243.50;105799;1308;60968;-75
2021/12/16 03:41:33;;;;;;;61.90;41.10;;;;;;;4.67;100.00;100245.10;105044;1317;74672;-76
2021/12/16 03:44:05;;;;;;;66.10;45.20;;;;;;;4.67;100.00;100246.88;104349;1307;69374;-76
2021/12/16 03:46:35;;;;;;;61.00;42.90;;;;;;;4.67;100.00;100246.85;102502;1308;73643;-76
2021/12/16 03:49:07;;;;;;;60.50;43.10;;;;;;;4.66;100.00;100247.94;102603;1307;61296;-77
2021/12/16 03:51:39;;;;;;;58.10;41.60;;;;;;;4.66;100.00;100250.23;102605;1308;61522;-77
2021/12/16 03:54:19;;;;;;;63.70;44.20;;;;;;;4.66;100.00;100250.40;102656;1307;76064;-75
2021/12/16 03:56:47;;;;;;;60.00;41.00;;;;;;;4.64;100.00;100246.40;102533;1307;68869;-75
2021/12/16 03:59:19;;;;;;;59.20;41.30;;;;;;;4.65;100.00;100246.20;102506;1307;72956;-76
2021/12/16 04:01:46;;;;;;;58.90;40.00;;;;;;;4.64;100.00;100245.16;102490;1308;61231;-76
2021/12/16 04:04:13;;;;;;;58.00;40.70;;;;;;;4.62;100.00;100241.86;102499;1307;61251;-76
2021/12/16 04:06:41;;;;;;;59.60;41.10;;;;;;;4.61;100.00;100244.88;102520;1308;76428;-77
2021/12/16 04:09:13;;;;;;;64.30;43.30;;;;;;;4.62;100.00;100244.16;102524;1311;68595;-76
2021/12/16 04:11:47;;;;;;;61.70;42.70;;;;;;;4.63;100.00;100247.83;102496;1307;73526;-76
2021/12/16 04:14:15;;;;;;;62.90;43.20;;;;;;;4.64;100.00;100251.35;102468;1307;61322;-76
2021/12/16 04:16:51;;;;;;;63.10;42.70;;;;;;;4.63;100.00;100249.23;102465;1307;61895;-76
2021/12/16 04:19:22;;;;;;;62.10;40.70;;;;;;;4.62;100.00;100246.62;102543;1307;75503;-76
2021/12/16 04:21:53;;;;;;;62.30;41.50;;;;;;;4.63;100.00;100248.54;102501;1308;69494;-76
2021/12/16 04:24:21;;;;;;;56.70;40.10;;;;;;;4.62;100.00;100246.45;102366;1309;73485;-76
2021/12/16 04:26:50;;;;;;;56.50;40.30;;;;;;;4.61;100.00;100251.39;102571;1308;61389;-76
2021/12/16 04:29:18;;;;;;;60.80;41.60;;;;;;;4.62;100.00;100251.55;102459;1311;61234;-75
2021/12/16 04:31:46;;;;;;;61.70;43.20;;;;;;;4.62;100.00;100254.01;102486;1314;75511;-76
2021/12/16 04:34:13;;;;;;;61.70;42.00;;;;;;;4.62;100.00;100253.99;102497;1307;69311;-77
2021/12/16 04:36:39;;;;;;;61.70;43.70;;;;;;;4.61;100.00;100256.67;102589;1307;73671;-77
2021/12/16 04:39:15;;;;;;;62.50;44.00;;;;;;;4.62;100.00;100261.39;102508;1308;61324;-76
2021/12/16 04:41:42;;;;;;;60.50;40.40;;;;;;;4.63;100.00;100259.09;102430;1308;218824;-76
2021/12/16 04:44:12;;;;;;;62.90;42.50;;;;;;;4.63;100.00;100260.14;102538;1307;76441;-75
2021/12/16 04:46:39;;;;;;;59.80;41.60;;;;;;;4.63;100.00;100264.38;102397;1311;70495;-77
2021/12/16 04:49:08;;;;;;;56.30;40.10;;;;;;;4.65;100.00;100267.86;102517;1311;73356;-75
2021/12/16 04:51:37;;;;;;;60.50;41.20;;;;;;;4.65;100.00;100261.52;102470;1308;61241;-76
2021/12/16 04:54:06;;;;;;;60.90;40.30;;;;;;;4.66;100.00;100267.66;102612;1314;61854;-76
2021/12/16 04:56:34;;;;;;;57.90;41.60;;;;;;;4.65;100.00;100265.21;102541;1308;76289;-76
2021/12/16 04:59:08;;;;;;;59.60;40.60;;;;;;;4.63;100.00;100269.66;102535;1307;70368;-75
2021/12/16 05:01:41;;;;;;;58.60;42.10;;;;;;;4.62;100.00;100265.45;102466;1308;73880;-76
2021/12/16 05:04:08;;;;;;;57.40;41.30;;;;;;;4.60;100.00;100265.48;102585;1311;61538;-76
2021/12/16 05:06:35;;;;;;;58.20;39.70;;;;;;;4.60;100.00;100268.65;102505;1307;61438;-76
2021/12/16 05:09:05;;;;;;;58.60;39.00;;;;;;;4.60;100.00;100267.96;102484;1307;75664;-77
2021/12/16 05:11:34;;;;;;;60.50;40.10;;;;;;;4.59;100.00;100272.02;102547;1308;69270;-77
2021/12/16 05:14:04;;;;;;;54.50;39.10;;;;;;;4.59;100.00;100279.41;102508;1311;73341;-75
2021/12/16 05:16:32;;;;;;;56.50;39.30;;;;;;;4.59;100.00;100276.09;102479;1314;61370;-77
2021/12/16 05:18:59;;;;;;;54.60;37.60;;;;;;;4.57;100.00;100276.64;102479;1311;61708;-75
2021/12/16 05:24:27;;;;;;;59.30;41.80;;;;;;;4.57;100.00;100278.92;102492;1307;70561;-76
2021/12/16 05:26:59;;;;;;;58.10;38.20;;;;;;;4.57;100.00;100280.88;102489;1307;73412;-76
2021/12/16 05:29:27;;;;;;;52.40;37.00;;;;;;;4.57;100.00;100283.69;102520;1308;61328;-77
2021/12/16 05:31:55;;;;;;;59.10;39.70;;;;;;;4.57;100.00;100285.10;102493;1308;62181;-77
2021/12/16 05:34:23;;;;;;;60.50;39.50;;;;;;;4.57;100.00;100283.35;102478;1308;75903;-75
2021/12/16 05:36:50;;;;;;;58.10;39.90;;;;;;;4.57;100.00;100287.22;102536;1307;69427;-77
2021/12/16 05:39:18;;;;;;;55.70;37.30;;;;;;;4.57;100.00;100286.16;102464;1308;71631;-76
2021/12/16 05:41:45;;;;;;;60.00;38.90;;;;;;;4.55;100.00;100283.73;102552;1311;61327;-77
2021/12/16 05:44:12;;;;;;;54.30;36.70;;;;;;;4.55;100.00;100289.35;102518;1311;61318;-75
2021/12/16 05:46:39;;;;;;;58.50;39.10;;;;;;;4.54;100.00;100289.04;102367;1310;75276;-76
2021/12/16 05:49:08;;;;;;;54.00;38.10;;;;;;;4.53;100.00;100291.86;102467;1309;68126;-76
2021/12/16 05:51:42;;;;;;;54.50;38.50;;;;;;;4.53;100.00;100291.70;102561;1308;73031;-78
2021/12/16 05:54:10;;;;;;;62.10;45.20;;;;;;;4.51;100.00;100296.84;102555;1308;63784;-75
2021/12/16 05:56:38;;;;;;;63.80;43.70;;;;;;;4.51;100.00;100296.67;102564;1307;61385;-76
2021/12/16 05:59:06;;;;;;;60.10;41.60;;;;;;;4.51;100.00;100295.08;102581;1307;75466;-76
2021/12/16 06:01:36;;;;;;;58.60;39.70;;;;;;;4.51;100.00;100291.92;102581;1308;67658;-76
2021/12/16 06:04:03;;;;;;;;;;;;;;;4.51;100.00;100292.45;102228;1311;70439;-75
2021/12/16 06:06:31;;;;;;;52.00;36.30;;;;;;;4.50;100.00;100292.29;102549;1307;61329;-76
2021/12/16 06:08:59;;;;;;;52.90;36.50;;;;;;;4.49;100.00;100293.38;102441;1307;61572;-77
2021/12/16 06:11:30;;;;;;;55.10;37.20;;;;;;;4.48;100.00;100291.30;102534;1307;76309;-75
2021/12/16 06:14:17;;;;;;;55.80;39.10;;;;;;;4.46;100.00;100286.04;102593;1307;69308;-76
2021/12/16 06:28:02;;;;;;;59.80;39.90;;;;;;;4.44;100.00;100295.06;102284;1311;69568;-77
2021/12/16 06:30:32;;;;;;;58.30;37.80;;;;;;;4.43;100.00;100292.98;102524;1311;74471;-75
2021/12/16 06:33:02;;;;;;;56.40;39.60;;;;;;;4.43;100.00;100293.67;102533;1311;61424;-76
2021/12/16 06:35:29;;;;;;;56.30;38.80;;;;;;;4.43;100.00;100289.28;102524;1307;61187;-76
2021/12/16 06:37:56;;;;;;;55.70;39.80;;;;;;;4.44;100.00;100289.79;102595;1307;75166;-76
2021/12/16 06:40:24;;;;;;;56.40;37.90;;;;;;;4.42;100.00;100295.27;102500;1308;69274;-75
2021/12/16 06:42:54;;;;;;;57.70;39.60;;;;;;;4.42;100.00;100295.62;102742;1307;73401;-76
2021/12/16 06:45:26;;;;;;;55.40;37.60;;;;;;;4.42;100.00;100298.27;102666;1308;61388;-77
2021/12/16 06:47:59;;;;;;;59.20;40.60;;;;;;;4.42;100.00;100295.46;102190;1313;61506;-77
2021/12/16 06:50:52;;;;;;;62.40;43.60;;;;;;;4.42;100.00;100294.58;102538;1307;74672;-76
2021/12/16 06:53:27;;;;;;;64.50;42.30;;;;;;;4.43;100.00;100298.95;102246;1308;68445;-77
2021/12/16 06:56:17;;;;;;;54.20;40.80;;;;;;;4.44;100.00;100298.23;102502;1307;73154;-76
2021/12/16 06:58:51;;;;;;;58.60;39.90;;;;;;;4.44;100.00;100301.04;102525;1307;61315;-76
2021/12/16 07:04:09;;;;;;;62.60;41.60;;;;;;;4.45;100.00;100300.67;102539;1307;76336;-77
2021/12/16 07:06:38;;;;;;;58.20;39.10;;;;;;;4.46;100.00;100301.02;102638;1311;70065;-77
2021/12/16 07:09:16;;;;;;;57.40;38.90;;;;;;;4.45;100.00;100298.22;102549;1308;71924;-75
2021/12/16 07:11:48;;;;;;;60.30;42.80;;;;;;;4.45;100.00;100295.73;102266;1307;61351;-74
2021/12/16 07:14:17;;;;;;;65.80;44.90;;;;;;;4.46;100.00;100300.14;102519;1311;61327;-76
2021/12/16 07:16:47;;;;;;;63.20;43.70;;;;;;;4.47;100.00;100299.40;102516;1307;75396;-76
2021/12/16 07:19:14;;;;;;;65.90;47.10;;;;;;;4.47;100.00;100300.80;102238;1315;70275;-77
2021/12/16 07:21:44;;;;;;;67.80;46.70;;;;;;;4.48;100.00;100289.70;102534;1307;74430;-75
2021/12/16 07:24:15;;;;;;;64.00;45.80;;;;;;;4.52;100.00;100292.08;102551;1307;61392;-76
2021/12/16 07:26:43;;;;;;;64.10;44.70;;;;;;;4.54;100.00;100294.84;102622;1308;61733;-77
2021/12/16 07:29:11;;;;;;;65.40;45.40;;;;;;;4.57;100.00;100294.06;102524;1307;74740;-75
2021/12/16 07:31:39;;;;;;;62.20;43.50;;;;;;;4.60;100.00;100288.91;102266;1307;67839;-77
2021/12/16 07:34:07;;;;;;;59.20;41.40;;;;;;;4.63;100.00;100284.63;102483;1311;73243;-76
2021/12/16 07:36:37;;;;;;;63.90;42.70;;;;;;;4.66;100.00;100281.57;102610;1308;61371;-76
2021/12/16 07:39:07;;;;;;;54.40;39.80;;;;;;;4.67;100.00;100282.59;102614;1307;61340;-76
2021/12/16 07:41:35;;;;;;;59.80;43.70;;;;;;;4.68;100.00;100287.33;102392;1314;76294;-76
2021/12/16 07:44:12;;;;;;;56.10;41.40;;;;;;;4.68;100.00;100288.73;102584;1308;69671;-76
2021/12/16 07:46:42;;;;;;;58.80;41.50;;;;;;;4.68;100.00;100288.38;102526;1308;74292;-75
2021/12/16 07:49:13;;;;;;;58.20;38.70;;;;;;;4.68;100.00;100288.38;102520;1307;61253;-76
2021/12/16 07:51:41;;;;;;;56.00;38.70;;;;;;;4.69;100.00;100288.19;102655;1307;61351;-76
2021/12/16 07:54:09;;;;;;;57.80;39.10;;;;;;;4.70;100.00;100290.29;102520;1307;75666;-75
2021/12/16 07:56:36;;;;;;;56.40;39.20;;;;;;;4.70;100.00;100287.13;102503;1308;70526;-76
2021/12/16 07:59:04;;;;;;;52.60;36.70;;;;;;;4.71;100.00;100286.73;102540;1311;74324;-76
2021/12/16 08:01:31;;;;;;;54.50;35.90;;;;;;;4.72;100.00;100285.64;102518;1311;61437;-77
2021/12/16 08:03:58;;;;;;;56.50;39.20;;;;;;;4.74;100.00;100283.67;102233;1313;61361;-76
2021/12/16 08:06:27;;;;;;;58.20;40.90;;;;;;;4.76;100.00;100293.14;102583;1307;75260;-77
2021/12/16 08:08:59;;;;;;;55.40;39.50;;;;;;;4.79;100.00;100294.48;102281;1307;70039;-76
2021/12/16 08:11:28;;;;;;;53.00;38.50;;;;;;;4.81;100.00;100300.92;102642;1311;74488;-76
2021/12/16 08:13:55;;;;;;;50.20;36.40;;;;;;;4.84;100.00;100298.58;102548;1308;61303;-75
2021/12/16 08:16:22;;;;;;;50.60;36.20;;;;;;;4.88;100.00;100294.80;102514;1307;61613;-76
2021/12/16 08:18:50;;;;;;;53.10;39.00;;;;;;;4.92;100.00;100295.25;102732;1308;74576;-77
2021/12/16 08:21:17;;;;;;;53.60;38.00;;;;;;;4.95;100.00;100296.05;102657;1307;69526;-77
2021/12/16 08:23:44;;;;;;;47.80;34.30;;;;;;;4.98;100.00;100299.84;102721;1308;71808;-77
2021/12/16 08:26:15;;;;;;;49.40;36.00;;;;;;;5.00;100.00;100302.98;103508;1307;61444;-75
2021/12/16 08:28:44;;;;;;;49.20;35.80;;;;;;;5.02;100.00;100302.05;103549;1307;61289;-75
2021/12/16 08:31:12;;;;;;;51.60;36.60;;;;;;;5.05;100.00;100301.47;103331;1307;75969;-77
2021/12/16 08:33:40;;;;;;;51.00;37.10;;;;;;;5.09;100.00;100302.42;102630;1311;69478;-76
2021/12/16 08:36:08;;;;;;;54.40;38.90;;;;;;;5.13;100.00;100303.36;102645;1308;74509;-77
2021/12/16 08:38:37;;;;;;;53.00;35.60;;;;;;;5.18;100.00;100306.95;102768;1307;61234;-77
2021/12/16 08:41:08;;;;;;;51.20;36.90;;;;;;;5.23;100.00;100307.71;102632;1308;61894;-75
2021/12/16 08:43:37;;;;;;;52.30;35.70;;;;;;;5.30;100.00;100304.92;102370;1314;76695;-75
2021/12/16 08:46:03;;;;;;;48.70;35.50;;;;;;;5.38;100.00;100301.90;102582;1307;69294;-76
2021/12/16 08:48:30;;;;;;;46.20;35.60;;;;;;;5.46;100.00;100300.45;102597;1308;74917;-76
2021/12/16 08:50:57;;;;;;;47.00;35.20;;;;;;;5.54;100.00;100298.14;102460;1313;61315;-77
2021/12/16 08:53:23;;;;;;;48.30;34.00;;;;;;;5.64;100.00;100301.08;102678;1308;61434;-77
2021/12/16 08:55:54;;;;;;;45.40;32.90;;;;;;;5.73;100.00;100295.88;102672;1307;76201;-76
2021/12/16 08:58:23;;;;;;;47.20;34.60;;;;;;;5.81;100.00;100289.68;102813;1308;67887;-77
2021/12/16 09:00:57;;;;;;;46.50;34.40;;;;;;;5.87;100.00;100287.95;102667;1308;73382;-75
2021/12/16 09:03:27;;;;;;;48.40;33.80;;;;;;;5.92;100.00;100288.15;102688;1308;61368;-76
2021/12/16 09:05:54;;;;;;;44.20;32.80;;;;;;;5.97;100.00;100292.30;102726;1307;61244;-76
2021/12/16 09:08:21;;;;;;;40.00;30.00;;;;;;;6.00;100.00;100292.38;102495;1307;75490;-76
2021/12/16 09:10:48;;;;;;;44.60;32.00;;;;;;;6.01;100.00;100295.53;102840;1307;69563;-75
2021/12/16 09:13:17;;;;;;;43.00;30.60;;;;;;;6.03;100.00;100293.01;102600;1313;73457;-75
2021/12/16 09:15:52;;;;;;;45.90;32.90;;;;;;;6.07;100.00;100293.96;103159;1307;61396;-77
2021/12/16 09:18:23;;;;;;;47.70;32.50;;;;;;;6.13;100.00;100301.38;103268;1308;61206;-82
2021/12/16 09:20:50;;;;;;;44.60;31.30;;;;;;;6.19;100.00;100302.08;103391;1307;75619;-76
2021/12/16 09:23:17;;;;;;;43.10;32.40;;;;;;;6.24;100.00;100299.65;103439;1311;69450;-77
2021/12/16 09:25:49;;;;;;;44.40;31.90;;;;;;;6.28;100.00;100294.77;104660;1307;74015;-75
2021/12/16 09:28:19;;;;;;;47.10;32.40;;;;;;;6.34;100.00;100293.90;105071;1316;60426;-77
2021/12/16 09:30:48;;;;;;;40.90;31.90;;;;;;;6.41;100.00;100292.11;105412;1313;60999;-75
2021/12/16 09:33:20;;;;;;;44.00;33.00;;;;;;;6.45;100.00;100288.64;105748;1307;75447;-76
2021/12/16 09:35:51;;;;;;;43.50;31.80;;;;;;;6.50;100.00;100289.02;103528;1315;69473;-76
2021/12/16 09:38:18;;;;;;;40.10;31.70;;;;;;;6.59;100.00;100285.23;102599;1312;73792;-76
2021/12/16 09:40:53;;;;;;;41.70;31.60;;;;;;;6.65;100.00;100282.56;102415;1310;61359;-77
2021/12/16 09:43:23;;;;;;;40.80;31.30;;;;;;;6.69;100.00;100283.16;102731;1307;61392;-77
2021/12/16 09:45:51;;;;;;;;;;;;;;;6.70;100.00;100288.59;102654;1308;76777;-78
2021/12/16 09:48:18;;;;;;;39.40;28.90;;;;;;;6.70;100.00;100284.39;102561;1307;69433;-75
2021/12/16 09:50:45;;;;;;;41.50;30.40;;;;;;;6.67;100.00;100278.79;102553;1307;74379;-77
2021/12/16 09:53:12;;;;;;;42.00;31.80;;;;;;;6.67;100.00;100275.28;102570;1307;61743;-75
2021/12/16 09:55:39;;;;;;;44.00;32.40;;;;;;;6.68;100.00;100275.23;102618;1307;61962;-76
2021/12/16 09:58:06;;;;;;;41.50;31.90;;;;;;;6.73;100.00;100267.15;102513;1307;75256;-76
2021/12/16 10:00:34;;;;;;;39.10;32.30;;;;;;;6.84;100.00;100265.91;102547;1311;69683;-76
2021/12/16 10:03:02;;;;;;;42.70;32.50;;;;;;;6.94;100.00;100258.19;102570;1307;74757;-76
2021/12/16 10:05:31;;;;;;;41.00;29.80;;;;;;;6.97;100.00;100252.27;102565;1308;61320;-76
2021/12/16 10:07:58;;;;;;;39.50;30.40;;;;;;;7.00;100.00;100248.81;102637;1307;61314;-76
2021/12/16 10:10:27;;;;;;;40.10;30.60;;;;;;;7.02;100.00;100248.55;102524;1307;75826;-76
2021/12/16 10:12:57;;;;;;;40.80;29.30;;;;;;;7.05;100.00;100251.63;102266;1313;70196;-77
2021/12/16 10:18:11;;;;;;;40.50;28.80;;;;;;;7.14;100.00;100239.70;102574;1307;61330;-76
2021/12/16 10:20:48;;;;;;;38.30;30.00;;;;;;;7.15;100.00;100246.00;102549;1308;61348;-76
2021/12/16 10:23:29;;;;;;;40.60;28.70;;;;;;;7.15;100.00;100242.13;102565;1311;75235;-76
2021/12/16 10:26:02;;;;;;;41.10;29.60;;;;;;;7.10;100.00;100236.83;102533;1308;70659;-76
2021/12/16 10:28:36;;;;;;;36.70;27.20;;;;;;;7.04;100.00;100236.65;102670;1308;73245;-76
2021/12/16 10:31:30;;;;;;;37.20;26.50;;;;;;;7.01;100.00;100239.06;102507;1307;61412;-76
2021/12/16 10:34:01;;;;;;;39.00;28.10;;;;;;;6.93;100.00;100241.95;102588;1307;61334;-77
2021/12/16 10:36:31;;;;;;;35.10;25.10;;;;;;;6.85;100.00;100246.99;102559;1314;74723;-77
2021/12/16 10:39:04;;;;;;;36.50;27.00;;;;;;;6.79;100.00;100250.38;102623;1307;70949;-76
2021/12/16 10:42:06;;;;;;;37.40;27.00;;;;;;;6.75;100.00;100249.23;102593;1307;73387;-76
2021/12/16 10:44:35;;;;;;;34.60;25.00;;;;;;;6.69;100.00;100253.50;101846;1316;61333;-78
2021/12/16 10:47:07;;;;;;;40.80;29.00;;;;;;;6.63;100.00;100248.91;102025;1316;61557;-78
2021/12/16 10:49:52;;;;;;;41.50;30.20;;;;;;;6.58;100.00;100248.52;101826;1320;75812;-76
2021/12/16 10:52:29;;;;;;;38.00;30.80;;;;;;;6.56;100.00;100245.08;101978;1319;68696;-77
2021/12/16 10:54:59;;;;;;;40.30;31.20;;;;;;;6.49;100.00;100248.10;101912;1316;73217;-76
2021/12/16 10:57:30;;;;;;;43.00;29.60;;;;;;;6.43;100.00;100243.33;101906;1316;62982;-78
2021/12/16 10:59:59;;;;;;;42.80;31.10;;;;;;;6.42;100.00;100249.52;101895;1316;61397;-78
2021/12/16 11:02:32;;;;;;;42.80;31.30;;;;;;;6.40;100.00;100246.41;101843;1316;76303;-76
2021/12/16 11:05:22;;;;;;;43.40;31.70;;;;;;;6.42;100.00;100242.65;101825;1316;69312;-77
2021/12/16 11:07:56;;;;;;;43.90;31.10;;;;;;;6.45;100.00;100239.56;101938;1316;73302;-77
2021/12/16 11:10:28;;;;;;;45.10;33.00;;;;;;;6.49;100.00;100236.98;101915;1316;61491;-77
2021/12/16 11:12:59;;;;;;;44.50;32.40;;;;;;;6.52;100.00;100239.71;101868;1316;61861;-77
2021/12/16 11:15:30;;;;;;;40.80;31.20;;;;;;;6.56;100.00;100239.41;101997;1316;76018;-78
2021/12/16 11:18:05;;;;;;;46.80;32.80;;;;;;;6.58;100.00;100240.57;101817;1316;69579;-77
2021/12/16 11:20:45;;;;;;;47.70;33.60;;;;;;;6.55;100.00;100240.30;101644;1317;74439;-76
2021/12/16 11:23:22;;;;;;;;;;;;;;;6.49;100.00;100238.76;102439;1311;61328;-76
2021/12/16 11:26:10;;;;;;;48.20;34.20;;;;;;;6.43;100.00;100240.35;102592;1310;61333;-77
2021/12/16 11:28:43;;;;;;;48.10;35.30;;;;;;;6.44;100.00;100242.94;102291;1314;75536;-78
2021/12/16 11:31:11;;;;;;;51.70;36.20;;;;;;;6.48;100.00;100243.38;102408;1316;69081;-77
2021/12/16 11:33:48;;;;;;;46.70;35.30;;;;;;;6.45;100.00;100243.82;102477;1310;72497;-80
2021/12/16 11:36:27;;;;;;;56.00;37.20;;;;;;;6.40;100.00;100237.25;102464;1310;61715;-77
2021/12/16 11:39:01;;;;;;;45.50;34.40;;;;;;;6.35;100.00;100237.02;102504;1314;61186;-79
2021/12/16 11:41:31;;;;;;;45.80;33.90;;;;;;;6.34;100.00;100237.06;102395;1310;75942;-77
2021/12/16 11:44:16;;;;;;;47.50;35.50;;;;;;;6.35;100.00;100235.11;102811;1310;70291;-84
2021/12/16 11:47:14;;;;;;;57.00;40.60;;;;;;;6.38;100.00;100233.77;103462;1307;72664;-77
2021/12/16 11:49:51;;;;;;;55.30;38.60;;;;;;;6.44;100.00;100233.77;102305;1316;61389;-77
2021/12/16 11:52:26;;;;;;;49.60;36.80;;;;;;;6.47;100.00;100239.32;101828;1322;61419;-79
2021/12/16 11:55:03;;;;;;;52.10;36.80;;;;;;;6.53;100.00;100237.73;102202;1316;75553;-80
2021/12/16 11:57:38;;;;;;;48.20;34.90;;;;;;;6.55;100.00;100241.91;102115;1316;68822;-79
2021/12/16 12:00:14;;;;;;;48.00;35.00;;;;;;;6.58;100.00;100240.93;101998;1316;73370;-75
2021/12/16 12:02:44;;;;;;;53.50;37.10;;;;;;;6.63;100.00;100232.49;101992;1316;61557;-76
2021/12/16 12:05:17;;;;;;;50.60;37.10;;;;;;;6.67;100.00;100228.50;101885;1316;61469;-76
2021/12/16 12:08:06;;;;;;;50.40;39.60;;;;;;;6.67;100.00;100232.02;101800;1316;75450;-76
2021/12/16 12:10:59;;;;;;;48.90;38.50;;;;;;;6.66;100.00;100234.34;101232;1325;70473;-76
2021/12/16 12:13:35;;;;;;;49.20;37.80;;;;;;;6.65;100.00;100238.95;100390;1333;73183;-76
2021/12/16 12:16:11;;;;;;;50.40;37.20;;;;;;;6.60;100.00;100242.98;101290;1325;61521;-77
2021/12/16 12:18:44;;;;;;;48.60;38.10;;;;;;;6.56;100.00;100243.13;101335;1325;61340;-76
2021/12/16 12:21:15;;;;;;;48.70;36.60;;;;;;;6.53;100.00;100235.78;101259;1325;75451;-77
2021/12/16 12:23:43;;;;;;;52.40;40.20;;;;;;;6.52;100.00;100234.24;101309;1323;70619;-76
2021/12/16 12:26:16;;;;;;;55.10;40.60;;;;;;;6.52;100.00;100227.33;101472;1323;73406;-75
2021/12/16 12:28:46;;;;;;;48.80;39.60;;;;;;;6.59;100.00;100224.48;101955;1317;61516;-77
2021/12/16 12:31:14;;;;;;;51.00;37.80;;;;;;;6.64;100.00;100222.41;101912;1316;61679;-76
2021/12/16 12:33:42;;;;;;;49.10;38.90;;;;;;;6.66;100.00;100215.09;101971;1320;75742;-76
2021/12/16 12:36:08;;;;;;;50.80;40.80;;;;;;;6.68;100.00;100218.55;101904;1316;70758;-77
2021/12/16 12:38:36;;;;;;;52.30;39.50;;;;;;;6.71;100.00;100221.65;101828;1316;74226;-77
2021/12/16 12:41:05;;;;;;;47.40;37.80;;;;;;;6.71;100.00;100217.21;102022;1316;61384;-75
2021/12/16 12:43:35;;;;;;;47.30;36.20;;;;;;;6.69;100.00;100219.75;101380;1319;221112;-76
2021/12/16 12:46:05;;;;;;;46.90;36.50;;;;;;;6.66;100.00;100226.05;101862;1316;75296;-80
2021/12/16 12:48:36;;;;;;;48.20;38.10;;;;;;;6.62;100.00;100224.75;102281;1307;70053;-78
2021/12/16 12:51:05;;;;;;;50.60;36.90;;;;;;;6.60;100.00;100222.68;102464;1308;74510;-80
2021/12/16 12:53:48;;;;;;;49.60;37.50;;;;;;;6.58;100.00;100212.30;102537;1307;61256;-79
2021/12/16 12:56:23;;;;;;;46.70;35.90;;;;;;;6.58;100.00;100210.73;102366;1314;61853;-79
2021/12/16 12:59:04;;;;;;;50.50;37.30;;;;;;;6.57;100.00;100227.20;102480;1308;75234;-81
2021/12/16 13:01:44;;;;;;;52.40;39.50;;;;;;;6.54;100.00;100233.10;102638;1314;69240;-79
2021/12/16 13:04:19;;;;;;;46.60;35.40;;;;;;;6.49;100.00;100235.89;102586;1310;73150;-80
2021/12/16 13:06:51;;;;;;;47.30;36.10;;;;;;;6.45;100.00;100229.00;102513;1307;61215;-82
2021/12/16 13:09:59;;;;;;;50.30;37.50;;;;;;;6.42;100.00;100224.48;102473;1307;62470;-78
2021/12/16 13:12:32;;;;;;;51.50;37.10;;;;;;;6.41;100.00;100215.69;102048;1317;76593;-79
2021/12/16 13:15:05;;;;;;;53.60;38.80;;;;;;;6.38;100.00;100214.86;101926;1317;70618;-80
2021/12/16 13:23:39;;;;;;;53.40;41.30;;;;;;;6.33;100.00;100226.69;102258;1319;61316;-82
2021/12/16 13:26:34;;;;;;;54.40;40.60;;;;;;;6.31;100.00;100235.55;102262;1316;76200;-79
2021/12/16 13:29:09;;;;;;;55.80;41.30;;;;;;;6.30;100.00;100237.02;102113;1319;69495;-79
2021/12/16 13:32:06;;;;;;;50.20;38.50;;;;;;;6.27;100.00;100238.68;103263;1317;73537;-80
2021/12/16 13:34:58;;;;;;;59.10;43.30;;;;;;;6.26;100.00;100233.77;103732;1317;61457;-80
2021/12/16 13:37:39;;;;;;;53.70;41.00;;;;;;;6.27;100.00;100236.76;102664;1322;61298;-78
2021/12/16 13:40:16;;;;;;;;;;;;;;;6.26;100.00;100238.90;101999;1319;74691;-79
2021/12/16 13:42:58;;;;;;;65.50;47.70;;;;;;;6.23;100.00;100236.34;102058;1317;68769;-80
2021/12/16 13:45:48;;;;;;;71.10;54.80;;;;;;;6.22;100.00;100233.56;102118;1317;73016;-79
2021/12/16 13:48:44;;;;;;;58.10;44.90;;;;;;;6.22;100.00;100232.13;101865;1320;61404;-80
2021/12/16 14:01:07;;;;;;;47.00;36.00;;;;;;;6.12;100.00;100228.88;102515;1308;72524;-79
2021/12/16 14:05:55;;;;;;;51.30;40.10;;;;;;;6.07;100.00;100201.68;102507;1307;61225;-80
2021/12/16 14:08:40;;;;;;;56.10;40.90;;;;;;;6.05;100.00;100214.43;102579;1307;76263;-79
2021/12/16 14:12:37;;;;;;;50.10;37.60;;;;;;;6.03;100.00;100226.30;102628;1307;69531;-80
2021/12/16 14:17:43;;;;;;;61.30;40.40;;;;;;;6.01;100.00;100229.37;102570;1307;61295;-78
2021/12/16 14:23:33;;;;;;;57.50;42.80;;;;;;;6.01;100.00;100238.73;102496;1313;75453;-80